(°C)
15°
14°
14°
13°
12°
11°
11°
(°C)
14°
13°
12°
12°
11°
10°
10°
NNO
NNO
NO
NO
NO
NO
NO
(km/h)
9-17
9-16
9-20
9-18
9-18
9-16
9-17
(mm)
0
0
0
0
0
0
0
(%)
0
0
0
0
0
0
0

Élévation du soleil

/ -32.6°
sun-icon
UV 3
06:29
19:00
Gibbeuse croissante (149°)
18:28
02:59

METAR pour Ivanka pri Dunaji (LZIB)

Heure Conditions Température/
Point de rosée
Vent Visibilité Météo Nuages Pression Changement Brut
VFR 15°C / 10°C 340º variable 310º to 020º 4kt >10km - Clouds and Visibility OK 1015 - LZIB 182000Z 34004KT 310V020 CAVOK 15/10 Q1015
VFR 15°C / 10°C 330º 6kt >10km - Scattered Clouds 4800ft 1015 - LZIB 181930Z 33006KT 9999 SCT048 15/10 Q1015
VFR 15°C / 9°C 320º 8kt >10km - Broken Clouds 4600ft 1015 - LZIB 181900Z 32008KT 9999 BKN046 15/09 Q1015
VFR 15°C / 10°C 300º 9kt >10km - Broken Clouds 4800ft 1015 - LZIB 181830Z 30009KT 9999 BKN048 15/10 Q1015
VFR 16°C / 11°C 290º 7kt >10km - Few Clouds 2500ft 1014 No Significant change LZIB 181800Z 29007KT 9999 FEW025 BKN047 16/11 Q1014 NOSIG
VFR 16°C / 11°C 290º 7kt >10km - Few Clouds 2500ft 1014 No Significant change LZIB 181730Z 29007KT 9999 FEW025 16/11 Q1014 NOSIG
VFR 16°C / 11°C 290º 8kt >10km - Few Clouds 2500ft 1014 No Significant change LZIB 181700Z 29008KT 9999 FEW025 BKN049 16/11 Q1014 NOSIG
VFR 16°C / 11°C 290º 9kt >10km - Few Clouds 2200ft 1014 No Significant change LZIB 181630Z 29009KT 9999 FEW022 SCT038 16/11 Q1014 NOSIG
VFR 17°C / 12°C 290º 9kt >10km - Few Clouds 2200ft 1014 No Significant change LZIB 181600Z 29009KT 9999 FEW022 SCT032 17/12 Q1014 NOSIG
VFR 17°C / 12°C 270º 10kt >10km - Few Clouds 2200ft 1014 No Significant change LZIB 181530Z 27010KT 9999 FEW022 SCT032 17/12 Q1014 NOSIG
VFR 17°C / 12°C 260º variable 230º to 290º 11kt >10km - Few Clouds 2000ft 1014 No Significant change LZIB 181500Z 26011KT 230V290 9999 FEW020 SCT027 17/12 Q1014 NOSIG
VFR 17°C / 12°C 280º 8kt >10km - Few Clouds 2400ft 1014 No Significant change LZIB 181430Z 28008KT 9999 FEW024 SCT040 17/12 Q1014 NOSIG
VFR 17°C / 11°C 280º 6kt >10km - Few Clouds 2400ft 1014 No Significant change LZIB 181400Z 28006KT 9999 FEW024 17/11 Q1014 NOSIG
VFR 17°C / 10°C 320º variable 290º to 350º 7kt >10km - Few Clouds 2400ft 1014 No Significant change LZIB 181330Z 32007KT 290V350 9999 FEW024 17/10 Q1014 NOSIG
VFR 17°C / 11°C 320º 6kt >10km - Few Clouds 2400ft 1014 No Significant change LZIB 181300Z 32006KT 9999 FEW024 SCT045 17/11 Q1014 NOSIG
VFR 17°C / 12°C 330º 7kt >10km - Few Clouds 1500ft 1014 No Significant change LZIB 181230Z 33007KT 9999 FEW015 17/12 Q1014 NOSIG
VFR 16°C / 13°C 300º 10kt >10km - Few Clouds 1500ft 1014 No Significant change LZIB 181200Z 30010KT 9999 FEW015 16/13 Q1014 NOSIG
VFR 18°C / 12°C 290º 12kt >10km Light Showers Rain 3.00mm precipitation Vertical Visibility of 0ft. 1014 Temporary: Showers Rain . LZIB 181130Z 29012KT 9999 -SHRA FEW028TCU SCT042 18/12 Q1014 TEMPO SHRA
VFR 19°C / 11°C 270º variable 240º to 310º 12kt >10km Light Showers Rain 3.00mm precipitation Vertical Visibility of 0ft. 1014 No Significant change LZIB 181100Z 27012KT 240V310 9999 -SHRA FEW032TCU SCT032 BKN045 19/11 Q1014 NOSIG
VFR 18°C / 11°C 290º variable 260º to 330º 11kt >10km - Few Clouds 2800ft 1014 No Significant change LZIB 181030Z 29011KT 260V330 9999 FEW028 SCT045 18/11 Q1014 NOSIG
VFR 18°C / 12°C 280º variable 250º to 310º 6kt >10km - Few Clouds 2800ft 1014 No Significant change LZIB 181000Z 28006KT 250V310 9999 FEW028 SCT040 18/12 Q1014 NOSIG
VFR 18°C / 11°C 300º variable 240º to 030º 4kt >10km - Few Clouds 2700ft 1014 No Significant change LZIB 180930Z 30004KT 240V030 9999 FEW027 18/11 Q1014 NOSIG
VFR 17°C / 11°C 330º 7kt >10km - Few Clouds 2500ft 1014 No Significant change LZIB 180900Z 33007KT 9999 FEW025 BKN038 17/11 Q1014 NOSIG
VFR 17°C / 11°C 280º 7kt >10km - Few Clouds 2600ft 1014 No Significant change LZIB 180830Z 28007KT 9999 FEW026 17/11 Q1014 NOSIG

VFR

15°C / 10°C

[Plus]
Vent 340º variable 310º to 020º 4kt
Visibilité >10km
Météo -
Nuages Clouds and Visibility OK
Pression 1015
Changement -
Brut LZIB 182000Z 34004KT 310V020 CAVOK 15/10 Q1015

VFR

15°C / 10°C

[Plus]
Vent 330º 6kt
Visibilité >10km
Météo -
Nuages Scattered Clouds 4800ft
Pression 1015
Changement -
Brut LZIB 181930Z 33006KT 9999 SCT048 15/10 Q1015

VFR

15°C / 9°C

[Plus]
Vent 320º 8kt
Visibilité >10km
Météo -
Nuages Broken Clouds 4600ft
Pression 1015
Changement -
Brut LZIB 181900Z 32008KT 9999 BKN046 15/09 Q1015

VFR

15°C / 10°C

[Plus]
Vent 300º 9kt
Visibilité >10km
Météo -
Nuages Broken Clouds 4800ft
Pression 1015
Changement -
Brut LZIB 181830Z 30009KT 9999 BKN048 15/10 Q1015

VFR

16°C / 11°C

[Plus]
Vent 290º 7kt
Visibilité >10km
Météo -
Nuages Few Clouds 2500ft
Pression 1014
Changement No Significant change
Brut LZIB 181800Z 29007KT 9999 FEW025 BKN047 16/11 Q1014 NOSIG

VFR

16°C / 11°C

[Plus]
Vent 290º 7kt
Visibilité >10km
Météo -
Nuages Few Clouds 2500ft
Pression 1014
Changement No Significant change
Brut LZIB 181730Z 29007KT 9999 FEW025 16/11 Q1014 NOSIG

VFR

16°C / 11°C

[Plus]
Vent 290º 8kt
Visibilité >10km
Météo -
Nuages Few Clouds 2500ft
Pression 1014
Changement No Significant change
Brut LZIB 181700Z 29008KT 9999 FEW025 BKN049 16/11 Q1014 NOSIG

VFR

16°C / 11°C

[Plus]
Vent 290º 9kt
Visibilité >10km
Météo -
Nuages Few Clouds 2200ft
Pression 1014
Changement No Significant change
Brut LZIB 181630Z 29009KT 9999 FEW022 SCT038 16/11 Q1014 NOSIG

VFR

17°C / 12°C

[Plus]
Vent 290º 9kt
Visibilité >10km
Météo -
Nuages Few Clouds 2200ft
Pression 1014
Changement No Significant change
Brut LZIB 181600Z 29009KT 9999 FEW022 SCT032 17/12 Q1014 NOSIG

VFR

17°C / 12°C

[Plus]
Vent 270º 10kt
Visibilité >10km
Météo -
Nuages Few Clouds 2200ft
Pression 1014
Changement No Significant change
Brut LZIB 181530Z 27010KT 9999 FEW022 SCT032 17/12 Q1014 NOSIG

VFR

17°C / 12°C

[Plus]
Vent 260º variable 230º to 290º 11kt
Visibilité >10km
Météo -
Nuages Few Clouds 2000ft
Pression 1014
Changement No Significant change
Brut LZIB 181500Z 26011KT 230V290 9999 FEW020 SCT027 17/12 Q1014 NOSIG

VFR

17°C / 12°C

[Plus]
Vent 280º 8kt
Visibilité >10km
Météo -
Nuages Few Clouds 2400ft
Pression 1014
Changement No Significant change
Brut LZIB 181430Z 28008KT 9999 FEW024 SCT040 17/12 Q1014 NOSIG

VFR

17°C / 11°C

[Plus]
Vent 280º 6kt
Visibilité >10km
Météo -
Nuages Few Clouds 2400ft
Pression 1014
Changement No Significant change
Brut LZIB 181400Z 28006KT 9999 FEW024 17/11 Q1014 NOSIG

VFR

17°C / 10°C

[Plus]
Vent 320º variable 290º to 350º 7kt
Visibilité >10km
Météo -
Nuages Few Clouds 2400ft
Pression 1014
Changement No Significant change
Brut LZIB 181330Z 32007KT 290V350 9999 FEW024 17/10 Q1014 NOSIG

VFR

17°C / 11°C

[Plus]
Vent 320º 6kt
Visibilité >10km
Météo -
Nuages Few Clouds 2400ft
Pression 1014
Changement No Significant change
Brut LZIB 181300Z 32006KT 9999 FEW024 SCT045 17/11 Q1014 NOSIG

VFR

17°C / 12°C

[Plus]
Vent 330º 7kt
Visibilité >10km
Météo -
Nuages Few Clouds 1500ft
Pression 1014
Changement No Significant change
Brut LZIB 181230Z 33007KT 9999 FEW015 17/12 Q1014 NOSIG

VFR

16°C / 13°C

[Plus]
Vent 300º 10kt
Visibilité >10km
Météo -
Nuages Few Clouds 1500ft
Pression 1014
Changement No Significant change
Brut LZIB 181200Z 30010KT 9999 FEW015 16/13 Q1014 NOSIG

VFR

18°C / 12°C

[Plus]
Vent 290º 12kt
Visibilité >10km
Météo Light Showers Rain 3.00mm precipitation
Nuages Vertical Visibility of 0ft.
Pression 1014
Changement Temporary: Showers Rain .
Brut LZIB 181130Z 29012KT 9999 -SHRA FEW028TCU SCT042 18/12 Q1014 TEMPO SHRA

VFR

19°C / 11°C

[Plus]
Vent 270º variable 240º to 310º 12kt
Visibilité >10km
Météo Light Showers Rain 3.00mm precipitation
Nuages Vertical Visibility of 0ft.
Pression 1014
Changement No Significant change
Brut LZIB 181100Z 27012KT 240V310 9999 -SHRA FEW032TCU SCT032 BKN045 19/11 Q1014 NOSIG

VFR

18°C / 11°C

[Plus]
Vent 290º variable 260º to 330º 11kt
Visibilité >10km
Météo -
Nuages Few Clouds 2800ft
Pression 1014
Changement No Significant change
Brut LZIB 181030Z 29011KT 260V330 9999 FEW028 SCT045 18/11 Q1014 NOSIG

VFR

18°C / 12°C

[Plus]
Vent 280º variable 250º to 310º 6kt
Visibilité >10km
Météo -
Nuages Few Clouds 2800ft
Pression 1014
Changement No Significant change
Brut LZIB 181000Z 28006KT 250V310 9999 FEW028 SCT040 18/12 Q1014 NOSIG

VFR

18°C / 11°C

[Plus]
Vent 300º variable 240º to 030º 4kt
Visibilité >10km
Météo -
Nuages Few Clouds 2700ft
Pression 1014
Changement No Significant change
Brut LZIB 180930Z 30004KT 240V030 9999 FEW027 18/11 Q1014 NOSIG

VFR

17°C / 11°C

[Plus]
Vent 330º 7kt
Visibilité >10km
Météo -
Nuages Few Clouds 2500ft
Pression 1014
Changement No Significant change
Brut LZIB 180900Z 33007KT 9999 FEW025 BKN038 17/11 Q1014 NOSIG

VFR

17°C / 11°C

[Plus]
Vent 280º 7kt
Visibilité >10km
Météo -
Nuages Few Clouds 2600ft
Pression 1014
Changement No Significant change
Brut LZIB 180830Z 28007KT 9999 FEW026 17/11 Q1014 NOSIG

TAF pour Ivanka pri Dunaji (LZIB)

From till


From till Wind 300º 8kt. Visibility 10km or more. Few Clouds 3500ft. Scattered Clouds 4500ft.
Temporarly from till Visibility 10km or more. Nil Significant Cloud.
Becoming from till Wind 20º 8kt. Visibility 10km or more. Few Clouds 3500ft. Scattered Clouds 4500ft.

Brut: TAF LZIB 181700Z 1818/1918 30008KT 9999 FEW035 SCT045 TEMPO 1821/1906 CAVOK BECMG 1906/1908 02008KT

Les images satellites et les pluies actuelles pour Ivanka pri Dunaji, Slovaquie

Le marqueur est placé sur Ivanka pri Dunaji. [Plus]

L'image satellite en temps réel combine la lumière visible pendant la journée et le rayonnement infrarouge pendant la nuit. La nuit, l'image n'est pas sombre car le rayonnement infrarouge permet de détecter les différences de température. Malheureusement, les nuages bas et le brouillard sont difficiles à distinguer des températures au sol et peuvent donc être presque invisibles pendant la nuit. Les images des satellites Météosat pour l'Europe sont mises à jour en temps réel toutes les 5 minutes. Les images GOES-16/GOES-17 (Amérique du Nord et du Sud) et Himawari (Asie) sont mises à jour toutes les 10 minutes.

La précipitation est estimée à partir des radars et des satellites. Les calculs des précipitations pour la nuit par le satellite sont moins précises que pour le jour. Les croix oranges marquent les lieux où la foudre a été détectée (sur Europe).

Copyright 2021 EUMETSAT / meteoblue. Données de foudre fournies par nowcast.

Radar et prévision de précipitation à court terme pour Ivanka pri Dunaji

Bruine
Légère
Modéré
Fort
Très fort
Grêle

Le marqueur est placé sur Ivanka pri Dunaji. Cette animation montre le Radar des précipitations pour les dernières heures, ainsi qu'une 1h prévision. La bruine ou les légères chutes de neiges peuvent ne pas être détectées par le radar. L'intensité des précipitations est visible avec un code couleur allant du bleu clair au orange.

Situation et avertissements actuels

EUMETNET – MeteoAlarm

pictomap

Source: SHMU

Un temps de retard entre ce site et le www.meteoalarm.eu site est possible, pour une information la plus à jour pour les alertes tel que publiée par les services météorologiques nationaux y participants, veuillez utiliser www.meteoalarm.eu.